Mountain Home, ID

11:34 AM MST on December 22, 2014 (GMT -0700)
RAWS MOUNTAIN HOME ID US | Change Station
CLOSE
Current Station
Personal Weather Station
Location: Mountain Home Air Force Base, ID
Elevation: 3000 ft
Nearby Weather Stations

Elev 3000 ft 43.03 °N, 115.87 °W | Updated 42 minutes ago

Rain
Rain
42 °F
Feels Like 36 °F
N
10
Wind Variable Wind from NW
Gusts 16.0 mph

Today
High -- | Low -- °F
--% Chance of Precip.
Yesterday
High -- | Low -- °F
Precip. -- in
8:12 AM 5:11 PM
New Moon, 1% visible
Pressure 30.17 in
Visibility 10.0 miles
Clouds Mostly Cloudy 3400 ft
Mostly Cloudy 5500 ft
Overcast 8000 ft
Windchill 36 °F
Dew Point 41 °F
Humidity 95%
Rainfall 0.40 in
Snow Depth Not available.
UV 0 out of 12
Pollen .10 out of 12
Air Quality Not available.
Flu Activity Not available.
METAR KBOI 221753Z 31008KT 10SM BKN034 BKN055 OVC080 05/03 A3017

More Conditions Fewer Conditions

Pressure 30.17 in
Visibility 10.0 miles
Clouds Mostly Cloudy 3400 ft
Mostly Cloudy 5500 ft
Overcast 8000 ft
Windchill 36 °F
Dew Point 41 °F
Humidity 95%
Rainfall 0.40 in
Snow Depth Not available.
UV 0 out of 12
Pollen .10 out of 12
Air Quality Not available.
Flu Activity Not available.
METAR KBOI 221753Z 31008KT 10SM BKN034 BKN055 OVC080 05/03 A3017

More Conditions Fewer Conditions

10-Day Weather Forecast

Almanac

Astronomy

Dec. 22, 2014 Rise Set
Actual Time
Civil Twilight
Nautical Twilight
Astronomical Twilight
Moon
Length of Visible Light
Length of Day
Tomorrow will be .
, % of the Moon is Illuminated

Today's Extremes

State Highs State Lows

Community

WunderPhotos

Upload Photos

1,779,671 photos uploaded!

WunderBlogs® & News

Nearby

Air Quality

  Air Quality AQ Index Pollutant
Not available.

Snow Depth

Station Depth Elevation

Earthquake Activity

City Distance Mag. Time & Date
Minimum magnitude displayed is 2.5.

Coastal Water Temperatures

Place Temperature

Nearby Weather Stations